Time;durP1;ratioP1;P1;durP2;ratioP2;P2;SDS_P1;SDS_P2;PMS_P1;PMS_P2;Temp;Humidity;BMP_temperature;BMP_pressure;BME280_temperature;BME280_humidity;BME280_pressure;Samples;Min_cycle;Max_cycle;Signal;HPM_P1;HPM_P2
2020/12/04 00:01:10;;;;;;;5.43;2.67;;;;;;;25.72;27.83;94198.16;5011768;28;20134;-32
2020/12/04 00:03:35;;;;;;;4.13;2.22;;;;;;;25.70;28.22;94193.03;5011612;28;20130;-33
2020/12/04 00:06:01;;;;;;;5.18;2.30;;;;;;;25.73;28.01;94199.81;5009472;28;20037;-31
2020/12/04 00:08:26;;;;;;;4.82;2.58;;;;;;;25.72;27.96;94202.56;5003515;28;20147;-33
2020/12/04 00:10:52;;;;;;;5.47;2.45;;;;;;;25.73;27.93;94193.75;5002037;28;20057;-32
2020/12/04 00:13:18;;;;;;;5.53;2.65;;;;;;;25.60;27.94;94167.81;5006899;28;20128;-33
2020/12/04 00:15:44;;;;;;;5.38;2.80;;;;;;;25.76;27.73;94204.75;5003179;28;20045;-32
2020/12/04 00:18:10;;;;;;;4.55;2.47;;;;;;;25.71;28.03;94188.63;5001582;28;20506;-34
2020/12/04 00:20:36;;;;;;;5.03;2.80;;;;;;;25.75;27.80;94195.25;4989726;28;22000;-32
2020/12/04 00:23:01;;;;;;;4.05;2.17;;;;;;;25.75;27.76;94197.88;5005868;28;20045;-32
2020/12/04 00:25:26;;;;;;;5.15;2.40;;;;;;;25.73;27.82;94189.31;5005975;28;20041;-34
2020/12/04 00:27:52;;;;;;;3.88;2.22;;;;;;;25.75;27.78;94181.28;5000906;28;20340;-32
2020/12/04 00:30:17;;;;;;;4.10;2.20;;;;;;;25.75;27.75;94182.13;4999298;28;20396;-31
2020/12/04 00:32:43;;;;;;;6.50;2.20;;;;;;;25.75;28.02;94158.53;5000893;28;20037;-32
2020/12/04 00:35:09;;;;;;;5.22;2.45;;;;;;;25.75;27.88;94152.44;5001850;28;20048;-33
2020/12/04 00:37:34;;;;;;;4.30;2.30;;;;;;;25.74;27.98;94154.22;5003117;28;20571;-33
2020/12/04 00:40:00;;;;;;;3.20;1.95;;;;;;;25.75;27.96;94150.66;5002516;28;20542;-31
2020/12/04 00:42:25;;;;;;;4.35;2.30;;;;;;;25.74;28.06;94150.81;5001871;28;20042;-33
2020/12/04 00:44:51;;;;;;;6.25;2.28;;;;;;;25.73;28.04;94142.09;4995974;28;20042;-33
2020/12/04 00:47:16;;;;;;;4.32;2.00;;;;;;;25.73;27.71;94142.09;5002502;28;20423;-32
2020/12/04 00:49:42;;;;;;;4.50;2.20;;;;;;;25.73;27.85;94139.47;5004795;28;20048;-34
2020/12/04 00:52:07;;;;;;;3.55;2.10;;;;;;;25.71;27.78;94117.81;5006084;28;20548;-33
2020/12/04 00:54:32;;;;;;;5.35;2.10;;;;;;;25.74;28.06;94125.38;4999086;28;20523;-32
2020/12/04 00:56:58;;;;;;;4.22;2.20;;;;;;;25.68;27.98;94108.44;5002016;28;20096;-33
2020/12/04 00:59:23;;;;;;;5.60;2.15;;;;;;;25.68;27.88;94125.97;5003609;28;20525;-31
2020/12/04 01:01:49;;;;;;;3.15;2.20;;;;;;;25.65;27.76;94118.38;5001023;28;20115;-32
2020/12/04 01:04:14;;;;;;;4.68;2.22;;;;;;;25.65;28.19;94118.38;5009461;28;20308;-30
2020/12/04 01:06:40;;;;;;;5.03;2.17;;;;;;;25.64;28.04;94111.50;5003360;28;20045;-32
2020/12/04 01:09:05;;;;;;;3.83;2.00;;;;;;;25.64;27.81;94106.25;5000577;28;20033;-33
2020/12/04 01:11:31;;;;;;;4.60;2.20;;;;;;;25.65;28.07;94108.72;5005316;28;20041;-30
2020/12/04 01:13:57;;;;;;;3.10;2.10;;;;;;;25.63;28.15;94105.41;5006481;28;20063;-31
2020/12/04 01:16:23;;;;;;;5.38;2.17;;;;;;;25.64;27.93;94109.72;5008394;28;20562;-31
2020/12/04 01:18:48;;;;;;;3.63;2.03;;;;;;;25.64;27.95;94114.13;5005601;28;20045;-32
2020/12/04 01:21:14;;;;;;;3.95;1.90;;;;;;;25.65;27.98;94098.25;5004366;28;20237;-31
2020/12/04 01:23:40;;;;;;;3.45;1.95;;;;;;;25.67;28.06;94092.84;4999894;28;20052;-34
2020/12/04 01:26:06;;;;;;;2.47;1.80;;;;;;;25.64;27.94;94099.22;5002711;28;20049;-31
2020/12/04 01:28:34;;;;;;;3.13;2.00;;;;;;;25.67;27.89;94098.09;4998976;28;20377;-33
2020/12/04 01:31:00;;;;;;;3.67;2.13;;;;;;;25.65;27.82;94081.66;5001502;28;20048;-32
2020/12/04 01:33:26;;;;;;;2.47;1.70;;;;;;;25.62;27.98;94076.75;4998501;28;20454;-33
2020/12/04 01:35:51;;;;;;;2.95;1.88;;;;;;;25.50;28.06;94062.94;4997706;28;20446;-32
2020/12/04 01:38:17;;;;;;;3.15;2.00;;;;;;;25.60;28.07;94078.66;5003302;28;20052;-31
2020/12/04 01:40:42;;;;;;;3.10;1.77;;;;;;;25.58;28.07;94081.44;5001814;28;20149;-32
2020/12/04 01:43:08;;;;;;;2.70;1.88;;;;;;;25.55;28.17;94079.91;4996030;28;20041;-33
2020/12/04 01:45:36;;;;;;;3.42;2.00;;;;;;;25.50;27.93;94076.91;4999622;28;20553;-31
2020/12/04 01:48:02;;;;;;;3.58;1.70;;;;;;;25.49;28.13;94067.38;5000113;28;20079;-31
2020/12/04 01:50:28;;;;;;;2.92;1.80;;;;;;;25.48;28.05;94064.91;5000081;28;20402;-32
2020/12/04 01:52:53;;;;;;;2.75;1.88;;;;;;;25.51;28.29;94060.19;4998099;28;20636;-32
2020/12/04 01:55:19;;;;;;;5.38;1.80;;;;;;;25.52;28.17;94061.81;5003017;28;20061;-30
2020/12/04 01:57:45;;;;;;;2.65;1.67;;;;;;;25.55;27.91;94061.53;5005339;28;20041;-33
2020/12/04 02:00:11;;;;;;;2.20;1.50;;;;;;;25.57;28.00;94064.91;5002232;28;20038;-32
2020/12/04 02:02:37;;;;;;;2.15;1.42;;;;;;;25.57;28.03;94058.81;5000231;28;20087;-34
2020/12/04 02:05:02;;;;;;;2.53;1.58;;;;;;;25.59;27.83;94059.47;5001862;28;20064;-33
2020/12/04 02:07:50;;;;;;;2.15;1.55;;;;;;;25.57;28.02;94054.41;4999665;28;20545;-34
2020/12/04 02:10:28;;;;;;;2.50;1.60;;;;;;;25.59;27.98;94035.06;4981543;28;20419;-32
2020/12/04 02:12:54;;;;;;;2.05;1.50;;;;;;;25.57;28.08;94036.03;4987925;28;20115;-31
2020/12/04 02:15:19;;;;;;;3.15;1.70;;;;;;;25.54;28.03;94033.69;4996773;28;20049;-30
2020/12/04 02:17:45;;;;;;;2.47;1.60;;;;;;;25.57;28.01;94041.28;4980706;28;20582;-33
2020/12/04 02:20:11;;;;;;;2.65;1.48;;;;;;;25.57;28.10;94041.28;4985836;28;20176;-31
2020/12/04 02:22:37;;;;;;;3.85;1.58;;;;;;;25.57;28.01;94029.97;5005269;28;20317;-32
2020/12/04 02:25:07;;;;;;;2.03;1.42;;;;;;;25.57;28.05;94033.44;5004136;28;21428;-32
2020/12/04 02:27:33;;;;;;;1.80;1.40;;;;;;;25.57;28.07;94025.56;5002738;28;20049;-29
2020/12/04 02:29:58;;;;;;;2.50;1.42;;;;;;;25.57;28.09;94036.03;5003689;28;20422;-32
2020/12/04 02:32:23;;;;;;;2.40;1.35;;;;;;;25.57;28.02;94028.19;5004395;28;20041;-32
2020/12/04 02:34:49;;;;;;;3.00;2.42;;;;;;;25.56;27.17;94033.56;5003078;28;20060;-31
2020/12/04 02:37:15;;;;;;;6.35;2.15;;;;;;;25.52;27.13;94032.19;5003020;28;20148;-30
2020/12/04 02:39:40;;;;;;;2.05;1.33;;;;;;;25.50;27.84;94032.31;5005072;28;20033;-31
2020/12/04 02:42:06;;;;;;;2.95;1.42;;;;;;;25.50;27.98;94029.69;5012970;28;20061;-32
2020/12/04 02:44:31;;;;;;;2.80;1.52;;;;;;;25.49;27.97;94028.06;5006744;28;20037;-33
2020/12/04 02:46:57;;;;;;;4.43;1.63;;;;;;;25.48;28.16;94023.78;5004354;28;20045;-31
2020/12/04 02:49:23;;;;;;;3.20;1.50;;;;;;;25.49;28.14;94022.81;5004400;28;20042;-32
2020/12/04 02:51:48;;;;;;;4.38;1.38;;;;;;;25.49;28.34;94035.91;5003099;28;20045;-31
2020/12/04 02:54:14;;;;;;;1.67;1.40;;;;;;;25.49;28.31;94022.81;5004348;28;20041;-32
2020/12/04 02:56:40;;;;;;;2.08;1.48;;;;;;;25.49;28.19;94001.84;5020805;28;20050;-32
2020/12/04 02:59:05;;;;;;;3.22;1.33;;;;;;;25.50;28.04;94023.63;5003667;28;20434;-33
2020/12/04 03:01:31;;;;;;;1.75;1.23;;;;;;;25.50;28.30;94021.00;4997997;28;20576;-32
2020/12/04 03:03:56;;;;;;;1.60;1.08;;;;;;;25.49;28.16;94014.09;5004455;28;20048;-31
2020/12/04 03:06:22;;;;;;;2.50;1.60;;;;;;;25.50;28.17;94010.50;5004790;28;20391;-31
2020/12/04 03:08:49;;;;;;;2.17;1.40;;;;;;;25.49;28.04;94014.09;5006567;28;20502;-32
2020/12/04 03:11:17;;;;;;;2.05;1.20;;;;;;;25.50;28.05;94013.13;5005937;28;20510;-30
2020/12/04 03:13:43;;;;;;;2.30;1.38;;;;;;;25.48;28.12;93997.56;5000632;28;20091;-34
2020/12/04 03:16:08;;;;;;;1.67;1.15;;;;;;;25.49;28.26;93993.97;5003665;28;20045;-33
2020/12/04 03:18:33;;;;;;;2.08;1.15;;;;;;;25.48;28.09;93991.50;5004752;28;20401;-31
2020/12/04 03:20:59;;;;;;;2.05;1.20;;;;;;;25.48;28.04;93994.94;5005465;28;20068;-32
2020/12/04 03:23:24;;;;;;;1.70;1.30;;;;;;;25.47;28.19;94005.59;5002245;28;20037;-30
2020/12/04 03:25:50;;;;;;;1.73;1.50;;;;;;;25.47;28.19;94024.75;5002430;28;20829;-32
2020/12/04 03:28:15;;;;;;;2.25;1.20;;;;;;;25.47;28.14;94037.84;4999996;28;20041;-30
2020/12/04 03:30:40;;;;;;;1.90;1.10;;;;;;;25.46;28.17;94036.22;4996545;28;20443;-34
2020/12/04 03:33:06;;;;;;;2.15;1.25;;;;;;;25.47;28.26;94048.34;5001672;28;20177;-32
2020/12/04 03:35:31;;;;;;;4.25;1.25;;;;;;;25.46;28.16;94036.22;5002761;28;20100;-31
2020/12/04 03:37:57;;;;;;;2.63;1.38;;;;;;;25.48;28.19;94044.75;5014170;28;20614;-33
2020/12/04 03:40:22;;;;;;;3.30;1.55;;;;;;;25.48;28.20;94036.91;5000020;28;20412;-32
2020/12/04 03:42:48;;;;;;;1.17;0.95;;;;;;;25.48;28.16;94026.41;5000192;28;20049;-31
2020/12/04 03:45:13;;;;;;;2.83;1.27;;;;;;;25.48;28.35;94010.69;5000701;28;20459;-32
2020/12/04 03:47:38;;;;;;;2.72;1.40;;;;;;;25.44;28.28;94022.44;5003936;28;20076;-32
2020/12/04 03:50:05;;;;;;;3.63;1.20;;;;;;;25.40;27.98;94005.34;5002228;28;21412;-30
2020/12/04 03:52:30;;;;;;;2.20;1.38;;;;;;;25.44;28.33;94006.69;5025403;22;20056;-32
2020/12/04 03:54:56;;;;;;;2.47;1.20;;;;;;;25.42;28.09;93983.25;5017793;28;20146;-32
2020/12/04 03:57:22;;;;;;;2.25;1.30;;;;;;;25.40;28.41;94021.06;5018839;28;20048;-32
2020/12/04 03:59:47;;;;;;;3.05;1.10;;;;;;;25.39;28.24;94014.16;5020634;28;20634;-34
2020/12/04 04:02:13;;;;;;;1.25;1.15;;;;;;;25.39;28.29;94008.91;5030800;28;20060;-32
2020/12/04 04:04:38;;;;;;;1.83;1.10;;;;;;;25.39;28.33;94008.91;5023007;28;20040;-32
2020/12/04 04:07:04;;;;;;;2.55;1.27;;;;;;;25.38;28.40;94023.00;5013366;28;20482;-32
2020/12/04 04:09:29;;;;;;;1.58;1.15;;;;;;;25.39;28.33;94019.41;5018278;28;20030;-32
2020/12/04 04:11:54;;;;;;;2.55;1.10;;;;;;;25.39;28.47;94025.47;5019667;28;20045;-31
2020/12/04 04:14:20;;;;;;;2.15;1.00;;;;;;;25.39;28.28;94035.97;5014462;28;20049;-32
2020/12/04 04:16:46;;;;;;;2.47;1.27;;;;;;;25.40;28.26;94042.03;5019873;28;20073;-32
2020/12/04 04:19:11;;;;;;;1.85;1.30;;;;;;;25.41;28.42;94046.31;5021288;28;20045;-33
2020/12/04 04:21:39;;;;;;;1.30;1.00;;;;;;;25.41;28.10;94038.44;5016725;28;20030;-32
2020/12/04 04:24:05;;;;;;;1.85;1.20;;;;;;;25.40;28.28;94031.56;5007981;28;20053;-32
2020/12/04 04:26:31;;;;;;;1.38;1.00;;;;;;;25.40;28.28;94031.56;5004946;28;20056;-32
2020/12/04 04:28:57;;;;;;;1.75;1.15;;;;;;;25.40;28.21;94021.88;5003234;28;21881;-32
2020/12/04 04:31:22;;;;;;;2.75;1.00;;;;;;;25.40;28.42;94015.84;5003432;28;20673;-33
2020/12/04 04:33:48;;;;;;;1.55;1.10;;;;;;;25.40;28.25;94014.00;5002576;28;20049;-33
2020/12/04 04:36:13;;;;;;;1.63;1.20;;;;;;;25.39;28.46;94029.88;5004985;28;20095;-32
2020/12/04 04:38:38;;;;;;;2.05;1.02;;;;;;;25.35;28.18;94036.41;5005802;28;20045;-32
2020/12/04 04:41:04;;;;;;;1.67;1.30;;;;;;;25.34;28.47;94053.09;5004443;28;20042;-33
2020/12/04 04:43:29;;;;;;;1.60;1.25;;;;;;;25.29;28.36;94024.72;4999015;28;20037;-33
2020/12/04 04:45:55;;;;;;;1.55;1.08;;;;;;;25.25;28.27;94034.66;5003874;28;20049;-32
2020/12/04 04:48:21;;;;;;;1.10;1.00;;;;;;;25.25;28.39;94032.03;5016346;28;20069;-33
2020/12/04 04:50:47;;;;;;;1.10;1.00;;;;;;;25.27;28.43;94063.34;5012014;28;20042;-34
2020/12/04 04:53:13;;;;;;;1.88;1.08;;;;;;;25.27;28.58;94053.69;5012616;28;20041;-34
2020/12/04 04:55:42;;;;;;;1.52;0.95;;;;;;;25.34;28.60;94047.84;5010562;28;20045;-35
2020/12/04 04:58:08;;;;;;;2.28;1.17;;;;;;;25.36;28.50;94056.41;5016561;28;20128;-35
2020/12/04 05:00:34;;;;;;;1.17;1.00;;;;;;;25.34;28.20;94043.44;5005899;28;20047;-33
2020/12/04 05:02:59;;;;;;;1.52;0.90;;;;;;;25.34;28.52;94026.88;5006795;28;20057;-35
2020/12/04 05:05:41;;;;;;;0.95;0.88;;;;;;;25.34;28.38;94040.00;5008750;28;20041;-34
2020/12/04 05:08:17;;;;;;;1.05;0.88;;;;;;;25.31;28.50;94031.47;5003948;28;20605;-35
2020/12/04 05:10:43;;;;;;;0.85;0.65;;;;;;;25.31;28.57;94023.59;5006447;28;20491;-35
2020/12/04 05:13:09;;;;;;;4.47;1.45;;;;;;;25.34;28.25;94008.53;5006564;28;20041;-35
2020/12/04 05:15:34;;;;;;;1.15;0.98;;;;;;;25.31;28.54;94013.13;5001607;28;20056;-34
2020/12/04 05:18:03;;;;;;;1.38;1.10;;;;;;;25.35;28.57;94007.59;5007268;28;20144;-34
2020/12/04 05:20:29;;;;;;;1.83;1.15;;;;;;;25.35;28.45;94012.81;5007841;28;20163;-35
2020/12/04 05:22:55;;;;;;;0.85;0.85;;;;;;;25.34;28.66;93990.19;5002391;28;20050;-34
2020/12/04 05:25:20;;;;;;;1.38;0.98;;;;;;;25.33;28.60;93989.38;5003957;28;20037;-34
2020/12/04 05:27:46;;;;;;;1.65;1.02;;;;;;;25.34;28.39;93984.94;5004205;28;20049;-34
2020/12/04 05:30:27;;;;;;;1.17;1.00;;;;;;;25.36;28.34;93996.13;5002669;28;20037;-34
2020/12/04 05:33:00;;;;;;;1.38;0.90;;;;;;;25.37;28.43;94008.25;5001664;28;20068;-34
2020/12/04 05:35:26;;;;;;;1.73;1.10;;;;;;;25.37;28.41;94003.00;5005375;28;20060;-35
2020/12/04 05:38:16;;;;;;;0.70;0.70;;;;;;;25.38;28.54;94007.28;5004055;28;20037;-34
2020/12/04 05:40:47;;;;;;;1.08;0.98;;;;;;;25.40;28.51;93992.25;5006642;28;21403;-34
2020/12/04 05:43:13;;;;;;;1.60;1.00;;;;;;;25.41;28.52;94004.38;5000737;28;20407;-34
2020/12/04 05:45:39;;;;;;;2.13;0.95;;;;;;;25.42;28.65;93995.53;5003435;28;20041;-35
2020/12/04 05:48:14;;;;;;;1.10;0.95;;;;;;;25.42;28.48;93993.75;5005020;28;20068;-34
2020/12/04 05:50:40;;;;;;;1.52;0.70;;;;;;;25.43;28.55;94007.66;5001807;28;20033;-34
2020/12/04 05:53:06;;;;;;;1.00;0.77;;;;;;;25.43;28.30;93984.06;5015308;28;20033;-34
2020/12/04 05:55:32;;;;;;;0.90;0.80;;;;;;;25.43;28.40;93963.09;5014055;28;20049;-34
2020/12/04 05:58:00;;;;;;;2.13;1.25;;;;;;;25.42;28.61;94000.75;5023425;28;20156;-36
2020/12/04 06:00:25;;;;;;;1.00;0.90;;;;;;;25.41;28.53;93978.97;5020631;28;20044;-34
2020/12/04 06:02:57;;;;;;;1.73;1.25;;;;;;;25.42;28.56;93966.69;5016776;28;20128;-34
2020/12/04 06:05:23;;;;;;;1.65;1.00;;;;;;;25.42;28.44;93977.16;5024101;28;20415;-34
2020/12/04 06:07:49;;;;;;;1.83;1.00;;;;;;;25.41;28.42;93976.38;5023521;28;20041;-34
2020/12/04 06:10:15;;;;;;;1.40;1.00;;;;;;;25.41;28.46;93975.53;5025938;28;20056;-33
2020/12/04 06:12:41;;;;;;;1.23;1.13;;;;;;;25.41;28.50;93972.91;5012796;28;20033;-35
2020/12/04 06:15:32;;;;;;;1.10;1.00;;;;;;;25.42;28.48;93972.75;5014777;28;20132;-33
2020/12/04 06:18:15;;;;;;;1.08;0.80;;;;;;;25.44;28.40;93970.00;5012217;28;20044;-34
2020/12/04 06:20:44;;;;;;;2.30;1.08;;;;;;;25.45;28.53;93966.41;5021979;28;20038;-34
2020/12/04 06:23:14;;;;;;;1.85;1.33;;;;;;;25.46;28.23;93975.91;5015054;28;20037;-34
2020/12/04 06:25:52;;;;;;;1.67;1.30;;;;;;;25.47;28.43;93969.69;5020008;28;20029;-34
2020/12/04 06:28:28;;;;;;;1.20;0.90;;;;;;;25.48;28.25;93960.88;5012181;28;20022;-34
2020/12/04 06:31:11;;;;;;;3.20;1.00;;;;;;;25.49;28.39;93957.25;5015327;28;20045;-34
2020/12/04 06:33:40;;;;;;;1.25;0.90;;;;;;;25.49;28.33;93957.25;5022898;28;20034;-35
2020/12/04 06:36:07;;;;;;;2.03;1.10;;;;;;;25.48;28.62;93963.50;5022655;28;20044;-35
2020/12/04 06:38:32;;;;;;;2.05;1.10;;;;;;;25.48;28.45;93971.34;5022825;28;20033;-34
2020/12/04 06:41:27;;;;;;;1.25;1.05;;;;;;;25.49;28.35;93946.78;5016228;28;20033;-32
2020/12/04 06:44:03;;;;;;;2.97;1.10;;;;;;;25.49;28.31;93959.06;5023370;28;20038;-34
2020/12/04 06:46:29;;;;;;;2.53;1.27;;;;;;;25.50;28.48;93963.31;5016292;28;20049;-34
2020/12/04 06:52:07;;;;;;;4.45;0.90;;;;;;;25.51;28.54;93975.47;5001871;28;20037;-34
2020/12/04 06:54:34;;;;;;;1.52;1.00;;;;;;;25.53;28.35;93984.00;5020025;28;20329;-34
2020/12/04 06:57:00;;;;;;;1.83;1.10;;;;;;;25.53;28.53;93986.63;5016604;28;20045;-32
2020/12/04 06:59:28;;;;;;;0.95;0.85;;;;;;;25.53;28.41;93979.59;5015378;28;20041;-34
2020/12/04 07:02:00;;;;;;;1.30;0.90;;;;;;;25.54;28.54;93990.88;5010341;28;20581;-35
2020/12/04 07:04:27;;;;;;;1.30;0.98;;;;;;;25.54;28.35;93986.47;5023576;28;20034;-34
2020/12/04 07:07:00;;;;;;;2.38;1.08;;;;;;;25.55;28.32;93982.06;5016742;28;20045;-35
2020/12/04 07:09:26;;;;;;;1.48;1.00;;;;;;;25.55;28.43;93968.97;5019920;28;20588;-34
2020/12/04 07:11:51;;;;;;;1.42;1.10;;;;;;;25.53;28.46;93947.28;5017660;28;20045;-35
2020/12/04 07:14:21;;;;;;;1.20;0.98;;;;;;;25.54;28.53;93957.63;5002115;28;20576;-35
2020/12/04 07:16:47;;;;;;;2.35;1.20;;;;;;;25.54;28.57;93959.41;5017165;28;20045;-33
2020/12/04 07:19:12;;;;;;;1.38;1.00;;;;;;;25.54;28.64;93955.00;5024142;28;20052;-34
2020/12/04 07:21:38;;;;;;;3.40;1.20;;;;;;;25.55;28.56;93972.38;5009578;28;20065;-33
2020/12/04 07:24:04;;;;;;;1.27;1.15;;;;;;;25.56;28.75;93984.56;5024709;28;20037;-36
2020/12/04 07:26:29;;;;;;;4.80;1.15;;;;;;;25.56;28.53;93978.50;5019485;28;20194;-36
2020/12/04 07:28:55;;;;;;;1.55;1.20;;;;;;;25.55;28.44;93980.25;4995775;28;20042;-34
2020/12/04 07:31:20;;;;;;;5.13;1.55;;;;;;;25.57;28.24;93973.13;5016896;28;20565;-33
2020/12/04 07:33:50;;;;;;;1.48;1.08;;;;;;;25.59;28.13;93964.25;5011011;28;20098;-34
2020/12/04 07:36:15;;;;;;;2.92;1.50;;;;;;;25.59;28.25;93951.16;5016341;28;20557;-34
2020/12/04 07:38:55;;;;;;;4.95;2.42;;;;;;;25.57;27.39;93960.00;5015501;28;20053;-34
2020/12/04 07:41:24;;;;;;;3.90;2.03;;;;;;;25.54;27.65;93944.53;5012706;28;20073;-34
2020/12/04 07:43:50;;;;;;;8.77;2.38;;;;;;;25.50;27.38;93943.19;5011542;28;20491;-34
2020/12/04 07:46:19;;;;;;;5.72;1.98;;;;;;;25.48;28.06;93966.13;5028299;28;20041;-34
2020/12/04 07:49:07;;;;;;;3.10;2.17;;;;;;;25.49;27.67;93954.66;5015478;28;20408;-35
2020/12/04 07:51:37;;;;;;;4.72;3.75;;;;;;;25.44;24.12;93949.84;5014824;28;20095;-33
2020/12/04 07:54:19;;;;;;;4.50;3.47;;;;;;;25.39;24.05;93964.34;5012451;28;20037;-34
2020/12/04 07:56:52;;;;;;;5.25;3.70;;;;;;;25.26;24.45;93986.53;5018253;28;20921;-35
2020/12/04 07:59:26;;;;;;;6.90;3.85;;;;;;;25.17;24.14;93948.09;5013278;28;20155;-34
2020/12/04 08:01:52;;;;;;;8.15;3.50;;;;;;;25.02;24.62;93945.94;4992799;28;20128;-33
2020/12/04 08:04:18;;;;;;;6.28;3.80;;;;;;;24.93;24.81;93928.47;5015094;28;20126;-34
2020/12/04 08:06:45;;;;;;;6.13;3.53;;;;;;;24.84;24.38;93926.75;5015663;28;20052;-34
2020/12/04 08:09:12;;;;;;;4.78;3.53;;;;;;;24.76;24.59;93925.66;5016697;28;20050;-34
2020/12/04 08:11:59;;;;;;;6.45;3.53;;;;;;;24.71;24.67;93938.34;5012411;28;20041;-34
2020/12/04 08:14:26;;;;;;;6.15;4.50;;;;;;;24.61;24.60;93935.78;5014245;28;20038;-35
2020/12/04 08:16:59;;;;;;;5.55;4.47;;;;;;;24.52;24.54;93924.34;5013827;28;20037;-34
2020/12/04 08:19:28;;;;;;;8.90;5.00;;;;;;;24.44;24.22;93931.28;5014406;28;20041;-34
2020/12/04 08:21:58;;;;;;;6.47;4.60;;;;;;;24.36;24.32;93922.34;5013490;28;20525;-35
2020/12/04 08:24:31;;;;;;;6.20;5.28;;;;;;;24.30;25.06;93909.00;5015023;28;20128;-34
2020/12/04 08:27:04;;;;;;;8.13;4.70;;;;;;;24.23;25.13;93886.03;5018520;28;20072;-33
2020/12/04 08:29:30;;;;;;;3.70;3.10;;;;;;;24.23;27.18;93878.19;5008736;28;20033;-34
2020/12/04 08:32:05;;;;;;;4.75;2.83;;;;;;;24.34;27.24;93878.97;5013711;28;20045;-35
2020/12/04 08:34:32;;;;;;;3.95;2.65;;;;;;;24.43;27.79;93901.66;5015615;28;20037;-33
2020/12/04 08:37:10;;;;;;;3.20;2.40;;;;;;;24.54;27.96;93911.13;5007079;28;20525;-35
2020/12/04 08:39:42;;;;;;;4.90;2.42;;;;;;;24.64;27.75;93900.63;5018584;28;20120;-33
2020/12/04 08:42:18;;;;;;;2.47;1.90;;;;;;;24.75;27.76;93878.66;5023020;28;20414;-32
2020/12/04 08:44:55;;;;;;;3.95;2.13;;;;;;;24.82;27.67;93881.53;5021004;28;20037;-31
2020/12/04 08:47:33;;;;;;;3.13;1.95;;;;;;;24.87;27.69;93895.03;5019122;28;20136;-34
2020/12/04 08:50:04;;;;;;;5.00;2.15;;;;;;;24.91;27.75;93917.34;5021531;28;20104;-35
2020/12/04 08:52:43;;;;;;;3.88;2.33;;;;;;;24.96;27.79;93912.47;5018905;28;20455;-32
2020/12/04 08:55:13;;;;;;;4.78;1.83;;;;;;;25.02;27.85;93924.97;5017790;28;20672;-33
2020/12/04 08:57:39;;;;;;;2.85;1.92;;;;;;;25.09;27.97;93937.50;5021873;28;20048;-32
2020/12/04 09:00:06;;;;;;;3.22;1.88;;;;;;;25.12;27.77;93945.91;5008671;28;20468;-32
2020/12/04 09:02:31;;;;;;;3.17;1.70;;;;;;;25.17;27.78;93950.72;5014835;28;20565;-34
2020/12/04 09:04:58;;;;;;;2.90;1.90;;;;;;;25.20;27.90;93945.16;5017414;28;20037;-34
2020/12/04 09:07:24;;;;;;;3.33;1.85;;;;;;;25.24;27.89;93949.13;5011236;28;20127;-34
2020/12/04 09:09:49;;;;;;;2.05;1.60;;;;;;;25.29;27.70;93948.72;5013372;28;20053;-34
2020/12/04 09:12:15;;;;;;;3.03;1.77;;;;;;;25.31;27.76;93952.81;5017947;28;20048;-34
2020/12/04 09:14:40;;;;;;;2.40;1.80;;;;;;;25.34;27.78;93948.25;5011199;28;20042;-34
2020/12/04 09:17:06;;;;;;;1.70;1.40;;;;;;;25.36;27.74;93948.94;5017479;28;20495;-34
2020/12/04 09:19:32;;;;;;;6.97;3.50;;;;;;;25.34;22.97;93940.38;5010262;28;20053;-32
2020/12/04 09:21:58;;;;;;;12.95;6.93;;;;;;;24.99;18.14;93950.66;5013459;28;20041;-32
2020/12/04 09:24:24;;;;;;;10.18;7.28;;;;;;;24.50;17.95;93925.47;5024143;28;20577;-34
2020/12/04 09:26:49;;;;;;;14.75;7.50;;;;;;;23.92;18.15;93907.16;5028254;28;20065;-33
2020/12/04 09:29:14;;;;;;;20.48;6.60;;;;;;;23.58;19.90;93904.97;5017918;28;20036;-33
2020/12/04 09:31:40;;;;;;;8.27;5.63;;;;;;;23.46;21.92;93910.31;5008960;28;20045;-33
2020/12/04 09:34:06;;;;;;;11.68;5.20;;;;;;;23.43;23.30;93902.75;5015350;28;20103;-34
2020/12/04 09:36:32;;;;;;;7.47;4.65;;;;;;;23.46;23.72;93897.25;5013296;28;20557;-33
2020/12/04 09:38:58;;;;;;;10.32;4.40;;;;;;;23.51;24.62;93888.16;5014430;28;20037;-34
2020/12/04 09:41:24;;;;;;;11.23;4.30;;;;;;;23.55;24.79;93884.31;5013194;28;20069;-34
2020/12/04 09:43:50;;;;;;;10.93;3.92;;;;;;;23.48;25.69;93884.03;5005702;28;20041;-32
2020/12/04 09:46:16;;;;;;;11.50;4.53;;;;;;;23.35;26.36;93868.66;5007071;28;20124;-36
2020/12/04 09:48:42;;;;;;;13.30;4.50;;;;;;;23.29;27.59;93869.19;5016336;28;20398;-37
2020/12/04 09:51:07;;;;;;;14.35;5.50;;;;;;;23.36;27.14;93870.28;5015624;28;20054;-42
2020/12/04 09:53:33;;;;;;;12.45;4.90;;;;;;;23.52;27.11;93882.81;5044425;22;20060;-43
2020/12/04 09:55:59;;;;;;;8.95;4.28;;;;;;;23.72;27.15;93870.53;5035262;28;20033;-43
2020/12/04 09:58:27;;;;;;;14.10;4.57;;;;;;;23.95;26.91;93888.53;5027434;28;20662;-45
2020/12/04 10:00:54;;;;;;;14.27;5.05;;;;;;;24.20;26.67;93902.00;5030290;28;20537;-44
2020/12/04 10:03:19;;;;;;;14.48;5.05;;;;;;;24.45;26.35;93907.59;5028883;28;20694;-41
2020/12/04 10:05:45;;;;;;;15.10;4.72;;;;;;;24.66;26.50;93903.91;5014638;28;20037;-44
2020/12/04 10:08:11;;;;;;;14.02;4.53;;;;;;;24.88;26.27;93897.50;5014183;28;20049;-45
2020/12/04 10:10:38;;;;;;;14.20;4.53;;;;;;;25.05;25.97;93908.97;5018514;28;20578;-42
2020/12/04 10:13:04;;;;;;;9.88;4.45;;;;;;;25.24;25.81;93901.97;5018264;28;20038;-44
2020/12/04 10:15:29;;;;;;;11.63;4.50;;;;;;;25.37;25.63;93901.63;5021730;28;20045;-45
2020/12/04 10:17:55;;;;;;;14.55;4.70;;;;;;;25.51;25.38;93912.56;5023716;28;20041;-43
2020/12/04 10:20:20;;;;;;;10.40;4.43;;;;;;;25.61;25.46;93886.25;5016676;28;20041;-41
2020/12/04 10:22:46;;;;;;;12.80;4.60;;;;;;;25.70;25.52;93864.38;5023339;28;20045;-43
2020/12/04 10:25:11;;;;;;;12.25;4.20;;;;;;;25.77;25.47;93875.91;5017955;28;20080;-44
2020/12/04 10:27:38;;;;;;;11.00;4.43;;;;;;;25.84;25.61;93873.50;5027035;28;20044;-42
2020/12/04 10:30:04;;;;;;;14.18;4.55;;;;;;;25.90;25.48;93896.47;5011764;28;20064;-43
2020/12/04 10:32:30;;;;;;;11.50;4.57;;;;;;;25.97;25.36;93907.19;5017679;28;20044;-42
2020/12/04 10:34:57;;;;;;;10.57;4.35;;;;;;;26.06;25.34;93911.53;5018627;28;20041;-42
2020/12/04 10:37:23;;;;;;;9.40;4.22;;;;;;;26.12;25.22;93920.59;5018929;28;20576;-43
2020/12/04 10:39:49;;;;;;;9.93;4.20;;;;;;;26.17;25.28;93912.25;5013964;28;20069;-43
2020/12/04 10:42:14;;;;;;;10.68;3.97;;;;;;;26.20;25.46;93886.53;5013749;28;20518;-43
2020/12/04 10:44:40;;;;;;;9.65;4.53;;;;;;;26.21;25.51;93892.59;5011663;28;20045;-35
2020/12/04 10:47:06;;;;;;;13.35;3.85;;;;;;;26.17;25.15;93901.75;5013199;28;20512;-36
2020/12/04 10:49:31;;;;;;;15.88;4.70;;;;;;;26.16;25.11;93908.00;5010276;28;20487;-33
2020/12/04 10:51:57;;;;;;;12.52;4.25;;;;;;;26.14;25.26;93896.81;5011185;28;20041;-33
2020/12/04 10:54:24;;;;;;;17.83;4.57;;;;;;;26.15;25.32;93880.09;5015190;28;20064;-31
2020/12/04 10:56:53;;;;;;;9.93;3.72;;;;;;;26.17;25.40;93865.84;5025030;28;20033;-32
2020/12/04 10:59:19;;;;;;;11.07;3.75;;;;;;;26.22;25.25;93852.25;5027835;28;20048;-31
2020/12/04 11:01:50;;;;;;;10.32;3.90;;;;;;;26.25;25.33;93872.94;5017176;28;20039;-35
2020/12/04 11:06:59;;;;;;;9.05;3.60;;;;;;;26.34;25.65;93898.28;5021483;28;20860;-33
2020/12/04 11:09:26;;;;;;;6.35;3.13;;;;;;;26.38;25.49;93876.97;5021335;28;20041;-33
2020/12/04 11:11:51;;;;;;;10.43;3.72;;;;;;;26.42;25.48;93859.91;5031388;28;20041;-35
2020/12/04 11:14:17;;;;;;;7.00;3.28;;;;;;;26.43;25.65;93843.19;5025108;28;20098;-33
2020/12/04 11:16:43;;;;;;;9.00;3.45;;;;;;;26.45;25.53;93843.84;5026537;28;20854;-34
2020/12/04 11:19:11;;;;;;;10.50;3.78;;;;;;;26.45;25.56;93852.56;5047557;28;20041;-33
2020/12/04 11:21:37;;;;;;;8.05;3.45;;;;;;;26.46;25.72;93853.38;5026909;28;20041;-33
2020/12/04 11:24:02;;;;;;;7.35;3.38;;;;;;;26.49;25.67;93842.56;5020111;28;20042;-32
2020/12/04 11:26:28;;;;;;;9.95;3.50;;;;;;;26.48;25.73;93846.16;5019186;28;20698;-33
2020/12/04 11:28:54;;;;;;;6.18;3.20;;;;;;;26.47;25.71;93855.84;5044257;28;20067;-34
2020/12/04 11:31:20;;;;;;;5.97;3.10;;;;;;;26.46;25.81;93859.47;5026865;28;20048;-32
2020/12/04 11:33:46;;;;;;;8.02;3.22;;;;;;;26.46;25.92;93874.38;5036390;28;20076;-33
2020/12/04 11:36:12;;;;;;;5.32;3.20;;;;;;;26.40;25.79;93873.22;5027515;28;20025;-35
2020/12/04 11:38:37;;;;;;;6.45;3.25;;;;;;;26.37;25.99;93859.56;5037650;28;20143;-36